sensor_id;sensor_type;location;lat;lon;timestamp;P1;durP1;ratioP1;P2;durP2;ratioP2
30635;SDS011;17400;52.392;9.750;2023-08-21T00:01:37;1.35;;;1.08;;
30635;SDS011;17400;52.392;9.750;2023-08-21T00:04:05;3.58;;;1.60;;
30635;SDS011;17400;52.392;9.750;2023-08-21T00:06:33;2.97;;;1.67;;
30635;SDS011;17400;52.392;9.750;2023-08-21T00:09:03;2.35;;;1.60;;
30635;SDS011;17400;52.392;9.750;2023-08-21T00:11:30;2.20;;;1.25;;
30635;SDS011;17400;52.392;9.750;2023-08-21T00:13:58;1.92;;;1.20;;
30635;SDS011;17400;52.392;9.750;2023-08-21T00:16:27;2.17;;;1.38;;
30635;SDS011;17400;52.392;9.750;2023-08-21T00:18:55;2.25;;;1.58;;
30635;SDS011;17400;52.392;9.750;2023-08-21T00:21:23;1.60;;;0.95;;
30635;SDS011;17400;52.392;9.750;2023-08-21T00:23:51;3.50;;;1.27;;
30635;SDS011;17400;52.392;9.750;2023-08-21T00:26:20;2.42;;;1.75;;
30635;SDS011;17400;52.392;9.750;2023-08-21T00:28:48;2.65;;;1.23;;
30635;SDS011;17400;52.392;9.750;2023-08-21T00:31:16;1.77;;;1.30;;
30635;SDS011;17400;52.392;9.750;2023-08-21T00:33:44;1.65;;;1.20;;
30635;SDS011;17400;52.392;9.750;2023-08-21T00:36:12;2.17;;;1.85;;
30635;SDS011;17400;52.392;9.750;2023-08-21T00:38:40;1.48;;;1.25;;
30635;SDS011;17400;52.392;9.750;2023-08-21T00:41:08;3.30;;;1.80;;
30635;SDS011;17400;52.392;9.750;2023-08-21T00:43:38;4.90;;;1.40;;
30635;SDS011;17400;52.392;9.750;2023-08-21T00:46:06;1.90;;;1.23;;
30635;SDS011;17400;52.392;9.750;2023-08-21T00:48:34;1.98;;;1.38;;
30635;SDS011;17400;52.392;9.750;2023-08-21T00:51:02;2.05;;;1.27;;
30635;SDS011;17400;52.392;9.750;2023-08-21T00:53:31;2.80;;;1.52;;
30635;SDS011;17400;52.392;9.750;2023-08-21T00:55:59;2.85;;;1.48;;
30635;SDS011;17400;52.392;9.750;2023-08-21T00:58:27;3.47;;;1.85;;
30635;SDS011;17400;52.392;9.750;2023-08-21T01:00:56;1.67;;;1.08;;
30635;SDS011;17400;52.392;9.750;2023-08-21T01:03:24;2.08;;;1.42;;
30635;SDS011;17400;52.392;9.750;2023-08-21T01:05:53;2.03;;;1.30;;
30635;SDS011;17400;52.392;9.750;2023-08-21T01:08:24;1.80;;;1.38;;
30635;SDS011;17400;52.392;9.750;2023-08-21T01:10:58;1.30;;;1.10;;
30635;SDS011;17400;52.392;9.750;2023-08-21T01:13:36;2.90;;;1.63;;
30635;SDS011;17400;52.392;9.750;2023-08-21T01:16:13;1.92;;;1.35;;
30635;SDS011;17400;52.392;9.750;2023-08-21T01:18:43;2.15;;;1.50;;
30635;SDS011;17400;52.392;9.750;2023-08-21T01:21:13;2.03;;;1.42;;
30635;SDS011;17400;52.392;9.750;2023-08-21T01:23:44;2.63;;;1.33;;
30635;SDS011;17400;52.392;9.750;2023-08-21T01:26:12;3.13;;;1.60;;
30635;SDS011;17400;52.392;9.750;2023-08-21T01:28:40;2.30;;;1.35;;
30635;SDS011;17400;52.392;9.750;2023-08-21T01:31:08;2.17;;;1.58;;
30635;SDS011;17400;52.392;9.750;2023-08-21T01:33:42;2.55;;;1.85;;
30635;SDS011;17400;52.392;9.750;2023-08-21T01:36:14;1.90;;;1.23;;
30635;SDS011;17400;52.392;9.750;2023-08-21T01:38:44;3.00;;;1.83;;
30635;SDS011;17400;52.392;9.750;2023-08-21T01:41:13;3.72;;;1.60;;
30635;SDS011;17400;52.392;9.750;2023-08-21T01:43:41;2.17;;;1.42;;
30635;SDS011;17400;52.392;9.750;2023-08-21T01:46:09;2.15;;;1.50;;
30635;SDS011;17400;52.392;9.750;2023-08-21T01:48:37;2.10;;;1.35;;
30635;SDS011;17400;52.392;9.750;2023-08-21T01:51:05;2.67;;;1.52;;
30635;SDS011;17400;52.392;9.750;2023-08-21T01:53:33;1.88;;;1.45;;
30635;SDS011;17400;52.392;9.750;2023-08-21T01:56:02;1.98;;;1.25;;
30635;SDS011;17400;52.392;9.750;2023-08-21T01:58:30;2.00;;;1.25;;
30635;SDS011;17400;52.392;9.750;2023-08-21T02:00:58;2.60;;;1.48;;
30635;SDS011;17400;52.392;9.750;2023-08-21T02:03:26;2.10;;;1.10;;
30635;SDS011;17400;52.392;9.750;2023-08-21T02:05:55;1.90;;;1.55;;
30635;SDS011;17400;52.392;9.750;2023-08-21T02:08:25;3.38;;;1.20;;
30635;SDS011;17400;52.392;9.750;2023-08-21T02:10:54;2.45;;;1.63;;
30635;SDS011;17400;52.392;9.750;2023-08-21T02:13:24;3.13;;;1.58;;
30635;SDS011;17400;52.392;9.750;2023-08-21T02:15:52;3.92;;;1.63;;
30635;SDS011;17400;52.392;9.750;2023-08-21T02:18:20;1.75;;;1.60;;
30635;SDS011;17400;52.392;9.750;2023-08-21T02:20:48;2.53;;;1.38;;
30635;SDS011;17400;52.392;9.750;2023-08-21T02:23:16;2.35;;;1.45;;
30635;SDS011;17400;52.392;9.750;2023-08-21T02:25:44;2.65;;;1.58;;
30635;SDS011;17400;52.392;9.750;2023-08-21T02:28:12;2.38;;;1.75;;
30635;SDS011;17400;52.392;9.750;2023-08-21T02:30:41;2.78;;;1.80;;
30635;SDS011;17400;52.392;9.750;2023-08-21T02:33:09;2.03;;;1.30;;
30635;SDS011;17400;52.392;9.750;2023-08-21T02:35:37;2.10;;;1.10;;
30635;SDS011;17400;52.392;9.750;2023-08-21T02:38:05;1.75;;;1.15;;
30635;SDS011;17400;52.392;9.750;2023-08-21T02:40:33;2.70;;;1.45;;
30635;SDS011;17400;52.392;9.750;2023-08-21T02:43:01;2.50;;;1.30;;
30635;SDS011;17400;52.392;9.750;2023-08-21T02:45:29;2.38;;;1.70;;
30635;SDS011;17400;52.392;9.750;2023-08-21T02:47:59;1.48;;;1.00;;
30635;SDS011;17400;52.392;9.750;2023-08-21T02:50:27;2.92;;;1.58;;
30635;SDS011;17400;52.392;9.750;2023-08-21T02:52:55;2.00;;;1.08;;
30635;SDS011;17400;52.392;9.750;2023-08-21T02:55:23;2.95;;;1.17;;
30635;SDS011;17400;52.392;9.750;2023-08-21T02:57:51;1.50;;;0.98;;
30635;SDS011;17400;52.392;9.750;2023-08-21T03:00:19;3.00;;;1.98;;
30635;SDS011;17400;52.392;9.750;2023-08-21T03:02:49;1.95;;;0.90;;
30635;SDS011;17400;52.392;9.750;2023-08-21T03:05:19;1.88;;;0.80;;
30635;SDS011;17400;52.392;9.750;2023-08-21T03:07:47;2.10;;;0.90;;
30635;SDS011;17400;52.392;9.750;2023-08-21T03:10:14;3.25;;;1.58;;
30635;SDS011;17400;52.392;9.750;2023-08-21T03:12:42;1.75;;;0.98;;
30635;SDS011;17400;52.392;9.750;2023-08-21T03:15:10;1.35;;;1.00;;
30635;SDS011;17400;52.392;9.750;2023-08-21T03:17:38;1.45;;;1.23;;
30635;SDS011;17400;52.392;9.750;2023-08-21T03:20:07;1.83;;;1.15;;
30635;SDS011;17400;52.392;9.750;2023-08-21T03:22:37;1.40;;;1.05;;
30635;SDS011;17400;52.392;9.750;2023-08-21T03:25:06;1.65;;;0.98;;
30635;SDS011;17400;52.392;9.750;2023-08-21T03:27:34;1.48;;;1.02;;
30635;SDS011;17400;52.392;9.750;2023-08-21T03:30:05;1.40;;;1.13;;
30635;SDS011;17400;52.392;9.750;2023-08-21T03:32:36;2.15;;;1.10;;
30635;SDS011;17400;52.392;9.750;2023-08-21T03:35:05;1.55;;;1.02;;
30635;SDS011;17400;52.392;9.750;2023-08-21T03:37:33;1.67;;;1.00;;
30635;SDS011;17400;52.392;9.750;2023-08-21T03:40:03;1.88;;;1.23;;
30635;SDS011;17400;52.392;9.750;2023-08-21T03:42:31;3.13;;;1.33;;
30635;SDS011;17400;52.392;9.750;2023-08-21T03:45:00;1.63;;;1.20;;
30635;SDS011;17400;52.392;9.750;2023-08-21T03:47:30;1.95;;;1.10;;
30635;SDS011;17400;52.392;9.750;2023-08-21T03:49:58;1.83;;;1.20;;
30635;SDS011;17400;52.392;9.750;2023-08-21T03:52:27;1.65;;;1.15;;
30635;SDS011;17400;52.392;9.750;2023-08-21T03:54:54;2.72;;;1.48;;
30635;SDS011;17400;52.392;9.750;2023-08-21T03:57:24;2.35;;;1.45;;
30635;SDS011;17400;52.392;9.750;2023-08-21T03:59:52;2.55;;;1.40;;
30635;SDS011;17400;52.392;9.750;2023-08-21T04:02:20;1.52;;;1.00;;
30635;SDS011;17400;52.392;9.750;2023-08-21T04:04:52;1.65;;;1.10;;
30635;SDS011;17400;52.392;9.750;2023-08-21T04:07:19;2.83;;;1.20;;
30635;SDS011;17400;52.392;9.750;2023-08-21T04:09:47;2.92;;;1.05;;
30635;SDS011;17400;52.392;9.750;2023-08-21T04:12:15;1.90;;;1.40;;
30635;SDS011;17400;52.392;9.750;2023-08-21T04:14:44;1.63;;;1.30;;
30635;SDS011;17400;52.392;9.750;2023-08-21T04:17:12;2.30;;;1.48;;
30635;SDS011;17400;52.392;9.750;2023-08-21T04:19:40;1.38;;;1.23;;
30635;SDS011;17400;52.392;9.750;2023-08-21T04:22:10;2.20;;;1.20;;
30635;SDS011;17400;52.392;9.750;2023-08-21T04:24:38;2.08;;;1.00;;
30635;SDS011;17400;52.392;9.750;2023-08-21T04:27:06;1.85;;;1.20;;
30635;SDS011;17400;52.392;9.750;2023-08-21T04:29:34;2.97;;;1.33;;
30635;SDS011;17400;52.392;9.750;2023-08-21T04:32:05;2.25;;;1.20;;
30635;SDS011;17400;52.392;9.750;2023-08-21T04:34:33;2.65;;;1.05;;
30635;SDS011;17400;52.392;9.750;2023-08-21T04:37:07;1.63;;;1.05;;
30635;SDS011;17400;52.392;9.750;2023-08-21T04:39:36;3.17;;;1.15;;
30635;SDS011;17400;52.392;9.750;2023-08-21T04:42:04;2.00;;;1.30;;
30635;SDS011;17400;52.392;9.750;2023-08-21T04:44:32;1.35;;;1.15;;
30635;SDS011;17400;52.392;9.750;2023-08-21T04:47:18;2.58;;;1.30;;
30635;SDS011;17400;52.392;9.750;2023-08-21T04:49:47;1.35;;;0.90;;
30635;SDS011;17400;52.392;9.750;2023-08-21T04:52:15;2.40;;;1.48;;
30635;SDS011;17400;52.392;9.750;2023-08-21T04:54:43;2.67;;;1.25;;
30635;SDS011;17400;52.392;9.750;2023-08-21T04:57:12;2.20;;;1.60;;
30635;SDS011;17400;52.392;9.750;2023-08-21T04:59:40;3.63;;;2.05;;
30635;SDS011;17400;52.392;9.750;2023-08-21T05:02:10;2.47;;;1.45;;
30635;SDS011;17400;52.392;9.750;2023-08-21T05:04:38;3.30;;;1.55;;
30635;SDS011;17400;52.392;9.750;2023-08-21T05:07:06;2.60;;;1.38;;
30635;SDS011;17400;52.392;9.750;2023-08-21T05:09:34;4.20;;;1.30;;
30635;SDS011;17400;52.392;9.750;2023-08-21T05:12:02;2.28;;;1.42;;
30635;SDS011;17400;52.392;9.750;2023-08-21T05:14:30;2.85;;;1.27;;
30635;SDS011;17400;52.392;9.750;2023-08-21T05:16:58;2.65;;;1.20;;
30635;SDS011;17400;52.392;9.750;2023-08-21T05:19:28;2.15;;;1.60;;
30635;SDS011;17400;52.392;9.750;2023-08-21T05:21:55;2.03;;;1.20;;
30635;SDS011;17400;52.392;9.750;2023-08-21T05:24:23;5.80;;;1.65;;
30635;SDS011;17400;52.392;9.750;2023-08-21T05:26:51;2.42;;;1.45;;
30635;SDS011;17400;52.392;9.750;2023-08-21T05:29:19;2.22;;;1.45;;
30635;SDS011;17400;52.392;9.750;2023-08-21T05:31:47;2.28;;;1.40;;
30635;SDS011;17400;52.392;9.750;2023-08-21T05:34:16;3.95;;;1.73;;
30635;SDS011;17400;52.392;9.750;2023-08-21T05:36:45;3.25;;;1.63;;
30635;SDS011;17400;52.392;9.750;2023-08-21T05:39:14;5.22;;;2.20;;
30635;SDS011;17400;52.392;9.750;2023-08-21T05:41:43;4.00;;;1.63;;
30635;SDS011;17400;52.392;9.750;2023-08-21T05:44:11;3.42;;;1.38;;
30635;SDS011;17400;52.392;9.750;2023-08-21T05:46:39;2.10;;;1.40;;
30635;SDS011;17400;52.392;9.750;2023-08-21T05:49:08;3.70;;;2.15;;
30635;SDS011;17400;52.392;9.750;2023-08-21T05:51:37;3.17;;;1.67;;
30635;SDS011;17400;52.392;9.750;2023-08-21T05:54:06;2.85;;;2.03;;
30635;SDS011;17400;52.392;9.750;2023-08-21T05:56:34;4.25;;;1.67;;
30635;SDS011;17400;52.392;9.750;2023-08-21T05:59:03;4.57;;;1.67;;
30635;SDS011;17400;52.392;9.750;2023-08-21T06:01:31;3.33;;;1.58;;
30635;SDS011;17400;52.392;9.750;2023-08-21T06:03:59;2.45;;;1.63;;
30635;SDS011;17400;52.392;9.750;2023-08-21T06:06:27;1.58;;;1.45;;
30635;SDS011;17400;52.392;9.750;2023-08-21T06:08:55;4.90;;;1.60;;
30635;SDS011;17400;52.392;9.750;2023-08-21T06:11:25;4.38;;;1.80;;
30635;SDS011;17400;52.392;9.750;2023-08-21T06:13:53;2.25;;;1.65;;
30635;SDS011;17400;52.392;9.750;2023-08-21T06:16:20;2.03;;;1.50;;
30635;SDS011;17400;52.392;9.750;2023-08-21T06:18:48;2.00;;;1.48;;
30635;SDS011;17400;52.392;9.750;2023-08-21T06:21:16;2.90;;;1.50;;
30635;SDS011;17400;52.392;9.750;2023-08-21T06:23:44;3.30;;;1.77;;
30635;SDS011;17400;52.392;9.750;2023-08-21T06:26:12;4.30;;;1.50;;
30635;SDS011;17400;52.392;9.750;2023-08-21T06:28:41;2.22;;;1.38;;
30635;SDS011;17400;52.392;9.750;2023-08-21T06:31:09;2.17;;;1.45;;
30635;SDS011;17400;52.392;9.750;2023-08-21T06:33:37;2.88;;;1.75;;
30635;SDS011;17400;52.392;9.750;2023-08-21T06:36:05;2.30;;;1.35;;
30635;SDS011;17400;52.392;9.750;2023-08-21T06:38:33;5.88;;;1.67;;
30635;SDS011;17400;52.392;9.750;2023-08-21T06:41:03;1.20;;;1.02;;
30635;SDS011;17400;52.392;9.750;2023-08-21T06:43:37;1.90;;;1.38;;
30635;SDS011;17400;52.392;9.750;2023-08-21T06:46:11;1.30;;;1.20;;
30635;SDS011;17400;52.392;9.750;2023-08-21T06:48:40;3.70;;;1.85;;
30635;SDS011;17400;52.392;9.750;2023-08-21T06:51:09;1.95;;;1.30;;
30635;SDS011;17400;52.392;9.750;2023-08-21T06:53:38;2.28;;;1.77;;
30635;SDS011;17400;52.392;9.750;2023-08-21T06:56:06;2.00;;;1.27;;
30635;SDS011;17400;52.392;9.750;2023-08-21T06:58:36;1.25;;;1.05;;
30635;SDS011;17400;52.392;9.750;2023-08-21T07:01:04;3.00;;;1.13;;
30635;SDS011;17400;52.392;9.750;2023-08-21T07:03:34;3.00;;;1.25;;
30635;SDS011;17400;52.392;9.750;2023-08-21T07:06:02;1.50;;;1.00;;
30635;SDS011;17400;52.392;9.750;2023-08-21T07:08:30;2.28;;;1.10;;
30635;SDS011;17400;52.392;9.750;2023-08-21T07:10:58;2.53;;;1.20;;
30635;SDS011;17400;52.392;9.750;2023-08-21T07:13:30;1.73;;;1.33;;
30635;SDS011;17400;52.392;9.750;2023-08-21T07:15:58;1.80;;;1.40;;
30635;SDS011;17400;52.392;9.750;2023-08-21T07:18:29;2.10;;;1.30;;
30635;SDS011;17400;52.392;9.750;2023-08-21T07:21:00;1.70;;;1.40;;
30635;SDS011;17400;52.392;9.750;2023-08-21T07:23:35;2.08;;;1.45;;
30635;SDS011;17400;52.392;9.750;2023-08-21T07:26:03;3.00;;;1.58;;
30635;SDS011;17400;52.392;9.750;2023-08-21T07:28:33;4.30;;;1.33;;
30635;SDS011;17400;52.392;9.750;2023-08-21T07:31:01;1.98;;;1.25;;
30635;SDS011;17400;52.392;9.750;2023-08-21T07:33:29;1.20;;;0.90;;
30635;SDS011;17400;52.392;9.750;2023-08-21T07:36:00;2.45;;;1.20;;
30635;SDS011;17400;52.392;9.750;2023-08-21T07:38:28;3.15;;;1.15;;
30635;SDS011;17400;52.392;9.750;2023-08-21T07:41:03;2.03;;;1.23;;
30635;SDS011;17400;52.392;9.750;2023-08-21T07:43:33;1.58;;;0.95;;
30635;SDS011;17400;52.392;9.750;2023-08-21T07:46:04;1.65;;;1.00;;
30635;SDS011;17400;52.392;9.750;2023-08-21T07:48:32;2.47;;;1.10;;
30635;SDS011;17400;52.392;9.750;2023-08-21T07:51:02;2.30;;;1.15;;
30635;SDS011;17400;52.392;9.750;2023-08-21T07:53:30;1.80;;;1.20;;
30635;SDS011;17400;52.392;9.750;2023-08-21T07:55:59;1.15;;;0.77;;
30635;SDS011;17400;52.392;9.750;2023-08-21T07:58:27;1.92;;;1.13;;
30635;SDS011;17400;52.392;9.750;2023-08-21T08:00:55;1.95;;;0.80;;
30635;SDS011;17400;52.392;9.750;2023-08-21T08:03:23;0.90;;;0.70;;
30635;SDS011;17400;52.392;9.750;2023-08-21T08:05:51;2.03;;;0.70;;
30635;SDS011;17400;52.392;9.750;2023-08-21T08:08:22;1.70;;;0.98;;
30635;SDS011;17400;52.392;9.750;2023-08-21T08:10:51;1.38;;;0.60;;
30635;SDS011;17400;52.392;9.750;2023-08-21T08:13:18;1.30;;;0.80;;
30635;SDS011;17400;52.392;9.750;2023-08-21T08:15:46;0.95;;;0.80;;
30635;SDS011;17400;52.392;9.750;2023-08-21T08:18:15;1.20;;;0.90;;
30635;SDS011;17400;52.392;9.750;2023-08-21T08:20:43;2.03;;;1.08;;
30635;SDS011;17400;52.392;9.750;2023-08-21T08:23:11;1.60;;;0.95;;
30635;SDS011;17400;52.392;9.750;2023-08-21T08:25:40;0.77;;;0.77;;
30635;SDS011;17400;52.392;9.750;2023-08-21T08:28:08;1.02;;;0.50;;
30635;SDS011;17400;52.392;9.750;2023-08-21T08:30:36;1.52;;;1.00;;
30635;SDS011;17400;52.392;9.750;2023-08-21T08:33:04;1.77;;;0.98;;
30635;SDS011;17400;52.392;9.750;2023-08-21T08:35:32;0.77;;;0.75;;
30635;SDS011;17400;52.392;9.750;2023-08-21T08:38:00;1.60;;;0.73;;
30635;SDS011;17400;52.392;9.750;2023-08-21T08:40:28;0.73;;;0.52;;
30635;SDS011;17400;52.392;9.750;2023-08-21T08:42:58;2.22;;;1.13;;
30635;SDS011;17400;52.392;9.750;2023-08-21T08:45:28;1.60;;;1.08;;
30635;SDS011;17400;52.392;9.750;2023-08-21T08:47:57;1.52;;;1.27;;
30635;SDS011;17400;52.392;9.750;2023-08-21T08:50:27;1.58;;;0.70;;
30635;SDS011;17400;52.392;9.750;2023-08-21T08:52:57;0.73;;;0.60;;
30635;SDS011;17400;52.392;9.750;2023-08-21T08:55:40;4.10;;;1.00;;
30635;SDS011;17400;52.392;9.750;2023-08-21T08:58:10;2.80;;;1.55;;
30635;SDS011;17400;52.392;9.750;2023-08-21T09:00:38;1.38;;;0.63;;
30635;SDS011;17400;52.392;9.750;2023-08-21T09:03:06;2.17;;;1.15;;
30635;SDS011;17400;52.392;9.750;2023-08-21T09:05:35;1.27;;;0.55;;
30635;SDS011;17400;52.392;9.750;2023-08-21T09:08:08;0.80;;;0.68;;
30635;SDS011;17400;52.392;9.750;2023-08-21T09:10:41;1.35;;;0.80;;
30635;SDS011;17400;52.392;9.750;2023-08-21T09:13:32;0.65;;;0.57;;
30635;SDS011;17400;52.392;9.750;2023-08-21T09:16:01;1.05;;;0.88;;
30635;SDS011;17400;52.392;9.750;2023-08-21T09:18:30;2.70;;;0.77;;
30635;SDS011;17400;52.392;9.750;2023-08-21T09:20:58;1.30;;;0.80;;
30635;SDS011;17400;52.392;9.750;2023-08-21T09:23:29;0.77;;;0.60;;
30635;SDS011;17400;52.392;9.750;2023-08-21T09:25:58;1.10;;;0.70;;
30635;SDS011;17400;52.392;9.750;2023-08-21T09:28:26;1.10;;;0.70;;
30635;SDS011;17400;52.392;9.750;2023-08-21T09:30:56;1.45;;;0.80;;
30635;SDS011;17400;52.392;9.750;2023-08-21T09:33:24;1.70;;;0.70;;
30635;SDS011;17400;52.392;9.750;2023-08-21T09:35:54;0.88;;;0.70;;
30635;SDS011;17400;52.392;9.750;2023-08-21T09:38:22;2.95;;;0.68;;
30635;SDS011;17400;52.392;9.750;2023-08-21T09:40:51;2.67;;;1.15;;
30635;SDS011;17400;52.392;9.750;2023-08-21T09:43:21;1.17;;;0.70;;
30635;SDS011;17400;52.392;9.750;2023-08-21T09:45:52;0.65;;;0.47;;
30635;SDS011;17400;52.392;9.750;2023-08-21T09:48:25;1.05;;;0.75;;
30635;SDS011;17400;52.392;9.750;2023-08-21T09:50:54;0.52;;;0.43;;
30635;SDS011;17400;52.392;9.750;2023-08-21T09:53:23;1.40;;;0.40;;
30635;SDS011;17400;52.392;9.750;2023-08-21T09:55:52;1.08;;;0.60;;
30635;SDS011;17400;52.392;9.750;2023-08-21T09:58:22;1.17;;;0.57;;
30635;SDS011;17400;52.392;9.750;2023-08-21T10:00:50;1.75;;;0.50;;
30635;SDS011;17400;52.392;9.750;2023-08-21T10:03:20;0.45;;;0.45;;
30635;SDS011;17400;52.392;9.750;2023-08-21T10:05:50;0.57;;;0.50;;
30635;SDS011;17400;52.392;9.750;2023-08-21T10:08:23;0.70;;;0.30;;
30635;SDS011;17400;52.392;9.750;2023-08-21T10:10:52;0.75;;;0.65;;
30635;SDS011;17400;52.392;9.750;2023-08-21T10:13:22;0.68;;;0.40;;
30635;SDS011;17400;52.392;9.750;2023-08-21T10:15:50;1.02;;;0.65;;
30635;SDS011;17400;52.392;9.750;2023-08-21T10:18:18;1.05;;;0.60;;
30635;SDS011;17400;52.392;9.750;2023-08-21T10:20:49;0.88;;;0.63;;
30635;SDS011;17400;52.392;9.750;2023-08-21T10:23:27;0.40;;;0.40;;
30635;SDS011;17400;52.392;9.750;2023-08-21T10:25:56;1.40;;;0.40;;
30635;SDS011;17400;52.392;9.750;2023-08-21T10:31:29;1.35;;;0.45;;
30635;SDS011;17400;52.392;9.750;2023-08-21T10:33:59;0.93;;;0.50;;
30635;SDS011;17400;52.392;9.750;2023-08-21T10:39:34;0.43;;;0.40;;
30635;SDS011;17400;52.392;9.750;2023-08-21T10:42:05;1.55;;;0.52;;
30635;SDS011;17400;52.392;9.750;2023-08-21T10:44:35;0.60;;;0.30;;
30635;SDS011;17400;52.392;9.750;2023-08-21T10:47:15;0.77;;;0.73;;
30635;SDS011;17400;52.392;9.750;2023-08-21T10:49:44;1.23;;;0.60;;
30635;SDS011;17400;52.392;9.750;2023-08-21T10:52:15;0.95;;;0.73;;
30635;SDS011;17400;52.392;9.750;2023-08-21T10:54:49;1.05;;;0.63;;
30635;SDS011;17400;52.392;9.750;2023-08-21T10:57:18;1.52;;;0.60;;
30635;SDS011;17400;52.392;9.750;2023-08-21T10:59:50;0.75;;;0.73;;
30635;SDS011;17400;52.392;9.750;2023-08-21T11:02:21;0.77;;;0.50;;
30635;SDS011;17400;52.392;9.750;2023-08-21T11:04:50;1.58;;;0.70;;
30635;SDS011;17400;52.392;9.750;2023-08-21T11:07:21;0.40;;;0.40;;
30635;SDS011;17400;52.392;9.750;2023-08-21T11:09:49;0.60;;;0.45;;
30635;SDS011;17400;52.392;9.750;2023-08-21T11:12:18;0.95;;;0.60;;
30635;SDS011;17400;52.392;9.750;2023-08-21T11:14:47;0.73;;;0.50;;
30635;SDS011;17400;52.392;9.750;2023-08-21T11:17:15;0.98;;;0.52;;
30635;SDS011;17400;52.392;9.750;2023-08-21T11:19:45;1.70;;;0.68;;
30635;SDS011;17400;52.392;9.750;2023-08-21T11:22:15;0.98;;;0.63;;
30635;SDS011;17400;52.392;9.750;2023-08-21T11:24:45;2.83;;;0.80;;
30635;SDS011;17400;52.392;9.750;2023-08-21T11:27:15;0.98;;;0.60;;
30635;SDS011;17400;52.392;9.750;2023-08-21T11:29:45;0.50;;;0.50;;
30635;SDS011;17400;52.392;9.750;2023-08-21T11:32:14;1.33;;;0.63;;
30635;SDS011;17400;52.392;9.750;2023-08-21T11:34:42;1.13;;;0.70;;
30635;SDS011;17400;52.392;9.750;2023-08-21T11:37:16;0.73;;;0.40;;
30635;SDS011;17400;52.392;9.750;2023-08-21T11:39:46;2.38;;;0.60;;
30635;SDS011;17400;52.392;9.750;2023-08-21T11:42:15;0.55;;;0.55;;
30635;SDS011;17400;52.392;9.750;2023-08-21T11:44:45;0.80;;;0.60;;
30635;SDS011;17400;52.392;9.750;2023-08-21T11:47:15;0.52;;;0.52;;
30635;SDS011;17400;52.392;9.750;2023-08-21T11:49:44;0.40;;;0.40;;
30635;SDS011;17400;52.392;9.750;2023-08-21T11:52:17;1.58;;;0.80;;
30635;SDS011;17400;52.392;9.750;2023-08-21T11:54:49;1.00;;;0.90;;
30635;SDS011;17400;52.392;9.750;2023-08-21T11:57:18;1.02;;;0.80;;
30635;SDS011;17400;52.392;9.750;2023-08-21T11:59:49;0.82;;;0.70;;
30635;SDS011;17400;52.392;9.750;2023-08-21T12:02:22;0.88;;;0.52;;
30635;SDS011;17400;52.392;9.750;2023-08-21T12:04:54;0.52;;;0.40;;
30635;SDS011;17400;52.392;9.750;2023-08-21T12:07:28;1.80;;;0.45;;
30635;SDS011;17400;52.392;9.750;2023-08-21T12:09:57;1.13;;;0.60;;
30635;SDS011;17400;52.392;9.750;2023-08-21T12:12:25;0.38;;;0.30;;
30635;SDS011;17400;52.392;9.750;2023-08-21T12:14:56;1.20;;;0.75;;
30635;SDS011;17400;52.392;9.750;2023-08-21T12:17:32;0.75;;;0.50;;
30635;SDS011;17400;52.392;9.750;2023-08-21T12:20:00;0.68;;;0.40;;
30635;SDS011;17400;52.392;9.750;2023-08-21T12:22:28;1.10;;;0.85;;
30635;SDS011;17400;52.392;9.750;2023-08-21T12:24:58;0.50;;;0.50;;
30635;SDS011;17400;52.392;9.750;2023-08-21T12:27:26;0.40;;;0.35;;
30635;SDS011;17400;52.392;9.750;2023-08-21T12:29:53;1.25;;;0.88;;
30635;SDS011;17400;52.392;9.750;2023-08-21T12:32:21;1.23;;;0.70;;
30635;SDS011;17400;52.392;9.750;2023-08-21T12:34:50;0.65;;;0.45;;
30635;SDS011;17400;52.392;9.750;2023-08-21T12:37:19;1.65;;;0.65;;
30635;SDS011;17400;52.392;9.750;2023-08-21T12:39:47;0.70;;;0.40;;
30635;SDS011;17400;52.392;9.750;2023-08-21T12:42:17;0.70;;;0.60;;
30635;SDS011;17400;52.392;9.750;2023-08-21T12:44:45;0.70;;;0.40;;
30635;SDS011;17400;52.392;9.750;2023-08-21T12:47:12;1.75;;;0.47;;
30635;SDS011;17400;52.392;9.750;2023-08-21T12:49:40;0.82;;;0.40;;
30635;SDS011;17400;52.392;9.750;2023-08-21T12:52:08;1.10;;;0.73;;
30635;SDS011;17400;52.392;9.750;2023-08-21T12:54:39;0.50;;;0.40;;
30635;SDS011;17400;52.392;9.750;2023-08-21T12:57:08;1.75;;;0.60;;
30635;SDS011;17400;52.392;9.750;2023-08-21T12:59:39;1.63;;;0.60;;
30635;SDS011;17400;52.392;9.750;2023-08-21T13:02:06;0.65;;;0.50;;
30635;SDS011;17400;52.392;9.750;2023-08-21T13:04:35;0.95;;;0.65;;
30635;SDS011;17400;52.392;9.750;2023-08-21T13:07:03;2.50;;;0.60;;
30635;SDS011;17400;52.392;9.750;2023-08-21T13:09:31;0.77;;;0.70;;
30635;SDS011;17400;52.392;9.750;2023-08-21T13:12:00;1.52;;;0.82;;
30635;SDS011;17400;52.392;9.750;2023-08-21T13:14:28;0.82;;;0.65;;
30635;SDS011;17400;52.392;9.750;2023-08-21T13:17:00;1.10;;;0.75;;
30635;SDS011;17400;52.392;9.750;2023-08-21T13:19:28;1.35;;;0.70;;
30635;SDS011;17400;52.392;9.750;2023-08-21T13:21:56;1.95;;;0.70;;
30635;SDS011;17400;52.392;9.750;2023-08-21T13:24:24;0.98;;;0.63;;
30635;SDS011;17400;52.392;9.750;2023-08-21T13:26:54;0.90;;;0.50;;
30635;SDS011;17400;52.392;9.750;2023-08-21T13:29:22;1.10;;;0.77;;
30635;SDS011;17400;52.392;9.750;2023-08-21T13:31:51;1.10;;;0.65;;
30635;SDS011;17400;52.392;9.750;2023-08-21T13:34:20;0.47;;;0.40;;
30635;SDS011;17400;52.392;9.750;2023-08-21T13:36:51;1.48;;;0.50;;
30635;SDS011;17400;52.392;9.750;2023-08-21T13:39:19;2.80;;;0.40;;
30635;SDS011;17400;52.392;9.750;2023-08-21T13:41:48;0.77;;;0.60;;
30635;SDS011;17400;52.392;9.750;2023-08-21T13:44:17;1.35;;;0.73;;
30635;SDS011;17400;52.392;9.750;2023-08-21T13:46:46;2.10;;;0.90;;
30635;SDS011;17400;52.392;9.750;2023-08-21T13:49:14;1.25;;;0.52;;
30635;SDS011;17400;52.392;9.750;2023-08-21T13:51:43;0.52;;;0.40;;
30635;SDS011;17400;52.392;9.750;2023-08-21T13:54:11;1.48;;;0.88;;
30635;SDS011;17400;52.392;9.750;2023-08-21T13:56:39;0.65;;;0.47;;
30635;SDS011;17400;52.392;9.750;2023-08-21T13:59:07;1.23;;;0.50;;
30635;SDS011;17400;52.392;9.750;2023-08-21T14:01:37;0.90;;;0.60;;
30635;SDS011;17400;52.392;9.750;2023-08-21T14:04:05;0.32;;;0.30;;
30635;SDS011;17400;52.392;9.750;2023-08-21T14:06:33;1.25;;;0.60;;
30635;SDS011;17400;52.392;9.750;2023-08-21T14:09:03;0.70;;;0.50;;
30635;SDS011;17400;52.392;9.750;2023-08-21T14:11:31;2.17;;;0.95;;
30635;SDS011;17400;52.392;9.750;2023-08-21T14:13:59;1.40;;;0.68;;
30635;SDS011;17400;52.392;9.750;2023-08-21T14:16:27;0.35;;;0.30;;
30635;SDS011;17400;52.392;9.750;2023-08-21T14:18:55;1.00;;;0.50;;
30635;SDS011;17400;52.392;9.750;2023-08-21T14:21:23;0.20;;;0.20;;
30635;SDS011;17400;52.392;9.750;2023-08-21T14:23:51;0.47;;;0.43;;
30635;SDS011;17400;52.392;9.750;2023-08-21T14:26:20;0.68;;;0.47;;
30635;SDS011;17400;52.392;9.750;2023-08-21T14:28:48;0.57;;;0.40;;
30635;SDS011;17400;52.392;9.750;2023-08-21T14:31:17;0.52;;;0.47;;
30635;SDS011;17400;52.392;9.750;2023-08-21T14:33:45;1.15;;;0.63;;
30635;SDS011;17400;52.392;9.750;2023-08-21T14:36:13;0.85;;;0.35;;
30635;SDS011;17400;52.392;9.750;2023-08-21T14:38:43;0.52;;;0.45;;
30635;SDS011;17400;52.392;9.750;2023-08-21T14:41:12;0.50;;;0.40;;
30635;SDS011;17400;52.392;9.750;2023-08-21T14:43:42;0.77;;;0.45;;
30635;SDS011;17400;52.392;9.750;2023-08-21T14:46:11;0.60;;;0.43;;
30635;SDS011;17400;52.392;9.750;2023-08-21T14:48:46;0.47;;;0.30;;
30635;SDS011;17400;52.392;9.750;2023-08-21T14:51:14;1.88;;;0.32;;
30635;SDS011;17400;52.392;9.750;2023-08-21T14:53:42;0.55;;;0.40;;
30635;SDS011;17400;52.392;9.750;2023-08-21T14:56:10;0.57;;;0.32;;
30635;SDS011;17400;52.392;9.750;2023-08-21T14:58:38;0.82;;;0.82;;
30635;SDS011;17400;52.392;9.750;2023-08-21T15:01:11;2.15;;;0.38;;
30635;SDS011;17400;52.392;9.750;2023-08-21T15:03:39;1.20;;;0.85;;
30635;SDS011;17400;52.392;9.750;2023-08-21T15:06:07;1.45;;;0.60;;